Time;durP1;ratioP1;P1;durP2;ratioP2;P2;SDS_P1;SDS_P2;PMS_P1;PMS_P2;Temp;Humidity;BMP_temperature;BMP_pressure;BME280_temperature;BME280_humidity;BME280_pressure;Samples;Min_cycle;Max_cycle;Signal;HPM_P1;HPM_P2
2021/05/10 00:01:18;;;;;;;3.20;1.60;;;;;;;;;;4987935;28;20213;-61
2021/05/10 00:03:44;;;;;;;1.50;1.40;;;;;;;;;;4989990;28;20191;-60
2021/05/10 00:06:11;;;;;;;2.80;1.97;;;;;;;;;;4982642;28;20203;-59
2021/05/10 00:08:43;;;;;;;2.47;1.60;;;;;;;;;;4986528;28;20199;-60
2021/05/10 00:11:11;;;;;;;2.17;1.90;;;;;;;;;;4988009;28;20267;-61
2021/05/10 00:13:43;;;;;;;1.60;1.47;;;;;;;;;;4994147;28;20191;-61
2021/05/10 00:16:11;;;;;;;2.77;1.80;;;;;;;;;;4990323;28;20188;-60
2021/05/10 00:18:36;;;;;;;2.77;1.60;;;;;;;;;;4987615;28;20239;-59
2021/05/10 00:21:03;;;;;;;2.17;1.50;;;;;;;;;;4988230;28;20208;-59
2021/05/10 00:23:33;;;;;;;1.77;1.67;;;;;;;;;;4997620;28;20186;-57
2021/05/10 00:25:58;;;;;;;2.43;1.40;;;;;;;;;;4988565;28;20191;-59
2021/05/10 00:28:26;;;;;;;1.93;1.77;;;;;;;;;;4985930;28;20263;-59
2021/05/10 00:30:53;;;;;;;2.73;1.90;;;;;;;;;;4988991;28;20334;-59
2021/05/10 00:33:21;;;;;;;2.00;1.90;;;;;;;;;;4985257;28;20200;-59
2021/05/10 00:35:48;;;;;;;2.67;2.17;;;;;;;;;;4989161;28;20258;-59
2021/05/10 00:38:16;;;;;;;2.33;2.13;;;;;;;;;;4983769;28;20196;-60
2021/05/10 00:40:46;;;;;;;2.20;1.90;;;;;;;;;;4985671;28;20684;-60
2021/05/10 00:43:11;;;;;;;3.07;1.90;;;;;;;;;;4985950;28;20200;-58
2021/05/10 00:45:37;;;;;;;2.57;1.93;;;;;;;;;;4987588;28;20279;-62
2021/05/10 00:48:05;;;;;;;2.33;1.90;;;;;;;;;;4987832;28;20191;-62
2021/05/10 00:50:37;;;;;;;1.97;1.77;;;;;;;;;;4989036;28;20677;-58
2021/05/10 00:53:07;;;;;;;2.13;1.60;;;;;;;;;;4982591;28;20632;-59
2021/05/10 00:55:35;;;;;;;3.50;1.40;;;;;;;;;;4989032;28;20345;-60
2021/05/10 00:58:03;;;;;;;1.83;1.30;;;;;;;;;;4985111;28;21729;-60
2021/05/10 01:00:31;;;;;;;1.67;1.57;;;;;;;;;;4986679;28;20187;-60
2021/05/10 01:03:02;;;;;;;2.47;1.87;;;;;;;;;;4984830;28;20603;-60
2021/05/10 01:05:29;;;;;;;1.50;1.37;;;;;;;;;;4984260;28;20176;-62
2021/05/10 01:07:57;;;;;;;1.40;1.30;;;;;;;;;;4968879;28;20196;-58
2021/05/10 01:10:26;;;;;;;1.37;1.17;;;;;;;;;;4983364;28;20185;-59
2021/05/10 01:12:54;;;;;;;1.90;1.17;;;;;;;;;;4987468;28;20215;-59
2021/05/10 01:15:26;;;;;;;1.40;1.30;;;;;;;;;;4981757;28;20212;-59
2021/05/10 01:17:56;;;;;;;2.00;1.30;;;;;;;;;;4990220;28;20539;-59
2021/05/10 01:20:26;;;;;;;2.00;1.57;;;;;;;;;;5003888;28;20199;-59
2021/05/10 01:22:59;;;;;;;2.00;1.83;;;;;;;;;;4999692;28;20762;-60
2021/05/10 01:25:31;;;;;;;2.57;1.30;;;;;;;;;;4987018;28;20188;-61
2021/05/10 01:28:04;;;;;;;3.27;1.93;;;;;;;;;;4985231;28;20683;-60
2021/05/10 01:30:33;;;;;;;1.90;1.70;;;;;;;;;;4984398;28;20238;-59
2021/05/10 01:32:59;;;;;;;2.63;1.80;;;;;;;;;;4982072;28;20712;-59
2021/05/10 01:35:32;;;;;;;1.87;1.67;;;;;;;;;;4986684;28;20216;-61
2021/05/10 01:37:58;;;;;;;1.70;1.60;;;;;;;;;;4982768;28;20215;-59
2021/05/10 01:40:28;;;;;;;2.33;1.80;;;;;;;;;;4984007;28;20192;-60
2021/05/10 01:42:54;;;;;;;3.13;2.07;;;;;;;;;;4985972;28;20222;-59
2021/05/10 01:45:24;;;;;;;3.43;2.00;;;;;;;;;;4969808;28;20184;-62
2021/05/10 01:47:57;;;;;;;3.27;2.00;;;;;;;;;;4983443;28;20275;-61
2021/05/10 01:50:26;;;;;;;2.37;2.03;;;;;;;;;;4977407;28;20216;-60
2021/05/10 01:52:54;;;;;;;2.83;2.00;;;;;;;;;;4988792;28;20235;-61
2021/05/10 01:55:22;;;;;;;2.10;1.97;;;;;;;;;;4985691;28;20259;-60
2021/05/10 01:57:52;;;;;;;4.73;2.17;;;;;;;;;;4996008;28;20613;-61
2021/05/10 02:00:21;;;;;;;2.20;2.00;;;;;;;;;;4980645;28;20278;-60
2021/05/10 02:02:52;;;;;;;2.80;2.40;;;;;;;;;;4981507;28;20212;-58
2021/05/10 02:05:21;;;;;;;3.53;2.70;;;;;;;;;;4984770;28;20626;-59
2021/05/10 02:07:53;;;;;;;3.50;2.10;;;;;;;;;;4989234;28;20211;-60
2021/05/10 02:10:26;;;;;;;2.20;2.00;;;;;;;;;;4989574;28;21085;-59
2021/05/10 02:13:07;;;;;;;2.13;2.00;;;;;;;;;;4985285;28;20795;-59
2021/05/10 02:15:35;;;;;;;3.63;2.30;;;;;;;;;;4981454;28;20584;-60
2021/05/10 02:18:01;;;;;;;2.27;2.03;;;;;;;;;;4980402;28;21498;-60
2021/05/10 02:20:30;;;;;;;3.00;2.27;;;;;;;;;;4987540;28;20199;-59
2021/05/10 02:23:13;;;;;;;2.40;2.20;;;;;;;;;;4986751;28;20215;-60
2021/05/10 02:25:41;;;;;;;3.47;2.67;;;;;;;;;;4985600;28;20188;-59
2021/05/10 02:28:10;;;;;;;2.90;2.30;;;;;;;;;;4986092;28;20223;-60
2021/05/10 02:30:41;;;;;;;3.00;2.43;;;;;;;;;;4987846;28;20200;-60
2021/05/10 02:33:08;;;;;;;2.67;2.47;;;;;;;;;;4984988;28;20234;-60
2021/05/10 02:35:34;;;;;;;2.23;2.03;;;;;;;;;;4995928;28;20291;-60
2021/05/10 02:37:59;;;;;;;2.17;1.90;;;;;;;;;;4981115;28;20271;-60
2021/05/10 02:40:27;;;;;;;3.10;2.53;;;;;;;;;;4987694;28;20267;-61
2021/05/10 02:42:57;;;;;;;3.20;2.67;;;;;;;;;;4982581;28;20270;-60
2021/05/10 02:45:23;;;;;;;2.70;2.50;;;;;;;;;;4998752;28;20176;-61
2021/05/10 02:47:53;;;;;;;3.60;2.40;;;;;;;;;;4982673;28;20187;-59
2021/05/10 02:50:21;;;;;;;3.67;2.50;;;;;;;;;;4976460;28;20255;-60
2021/05/10 02:52:47;;;;;;;4.33;2.80;;;;;;;;;;4980057;28;20203;-60
2021/05/10 02:55:13;;;;;;;3.20;2.53;;;;;;;;;;4984594;28;20237;-60
2021/05/10 02:57:39;;;;;;;3.53;2.70;;;;;;;;;;4988536;28;20271;-60
2021/05/10 03:00:11;;;;;;;2.80;2.50;;;;;;;;;;4989579;28;20188;-60
2021/05/10 03:02:41;;;;;;;3.80;2.73;;;;;;;;;;4988671;28;20207;-60
2021/05/10 03:05:09;;;;;;;3.27;2.87;;;;;;;;;;4983728;28;20231;-60
2021/05/10 03:07:35;;;;;;;3.20;2.90;;;;;;;;;;4987961;28;20176;-59
2021/05/10 03:10:03;;;;;;;3.50;3.20;;;;;;;;;;4985127;28;20569;-59
2021/05/10 03:12:30;;;;;;;4.13;3.03;;;;;;;;;;4984502;28;20213;-59
2021/05/10 03:15:00;;;;;;;3.00;2.70;;;;;;;;;;4986030;28;20207;-60
2021/05/10 03:17:33;;;;;;;3.20;3.00;;;;;;;;;;4987319;28;20328;-59
2021/05/10 03:20:03;;;;;;;3.60;3.13;;;;;;;;;;4984392;28;20202;-60
2021/05/10 03:22:28;;;;;;;3.33;3.00;;;;;;;;;;4980992;28;20219;-59
2021/05/10 03:24:56;;;;;;;3.03;2.83;;;;;;;;;;4983325;28;20184;-60
2021/05/10 03:27:24;;;;;;;4.00;2.87;;;;;;;;;;4979871;28;20202;-59
2021/05/10 03:29:49;;;;;;;3.90;2.70;;;;;;;;;;4986471;28;20286;-59
2021/05/10 03:32:17;;;;;;;5.40;2.97;;;;;;;;;;4998088;28;20299;-60
2021/05/10 03:34:46;;;;;;;4.47;2.50;;;;;;;;;;4986116;28;20236;-60
2021/05/10 03:37:12;;;;;;;7.63;3.10;;;;;;;;;;4982742;28;20325;-59
2021/05/10 03:39:39;;;;;;;2.83;2.63;;;;;;;;;;4987632;28;20721;-59
2021/05/10 03:42:05;;;;;;;4.13;3.40;;;;;;;;;;4982099;28;20219;-59
2021/05/10 03:44:35;;;;;;;3.30;2.60;;;;;;;;;;4984008;28;20180;-59
2021/05/10 03:47:06;;;;;;;2.80;2.60;;;;;;;;;;4995030;28;20188;-60
2021/05/10 03:49:33;;;;;;;2.80;2.60;;;;;;;;;;4987549;28;20203;-60
2021/05/10 03:52:00;;;;;;;4.93;3.20;;;;;;;;;;4983715;28;20219;-59
2021/05/10 03:54:33;;;;;;;3.17;2.87;;;;;;;;;;4981239;28;20212;-59
2021/05/10 03:57:03;;;;;;;4.57;2.93;;;;;;;;;;4982781;28;20195;-59
2021/05/10 03:59:30;;;;;;;3.57;2.93;;;;;;;;;;4979113;28;20690;-60
2021/05/10 04:01:58;;;;;;;3.83;3.10;;;;;;;;;;4987481;28;21042;-60
2021/05/10 04:04:32;;;;;;;2.90;2.70;;;;;;;;;;4982519;28;20188;-59
2021/05/10 04:09:53;;;;;;;3.20;2.90;;;;;;;;;;4982198;28;20753;-60
2021/05/10 04:15:15;;;;;;;3.13;2.83;;;;;;;;;;4967907;28;20231;-59
2021/05/10 04:17:45;;;;;;;4.40;3.40;;;;;;;;;;4984810;28;20678;-59
2021/05/10 04:20:10;;;;;;;3.07;2.87;;;;;;;;;;4987534;28;20739;-61
2021/05/10 04:22:41;;;;;;;3.23;2.67;;;;;;;;;;5000873;28;20294;-60
2021/05/10 04:25:11;;;;;;;4.37;3.30;;;;;;;;;;4978515;28;20181;-60
2021/05/10 04:27:39;;;;;;;3.37;2.93;;;;;;;;;;4983445;28;20242;-59
2021/05/10 04:30:07;;;;;;;3.80;3.07;;;;;;;;;;4988009;28;20255;-59
2021/05/10 04:32:35;;;;;;;3.83;3.33;;;;;;;;;;4981545;28;20214;-59
2021/05/10 04:35:01;;;;;;;3.10;2.90;;;;;;;;;;4992753;28;20583;-59
2021/05/10 04:37:28;;;;;;;3.77;3.40;;;;;;;;;;4988084;28;20278;-59
2021/05/10 04:39:56;;;;;;;4.03;3.27;;;;;;;;;;4979729;28;20280;-60
2021/05/10 04:42:21;;;;;;;4.07;3.70;;;;;;;;;;4981942;28;20597;-59
2021/05/10 04:44:48;;;;;;;3.40;3.07;;;;;;;;;;4988314;28;20184;-59
2021/05/10 04:47:18;;;;;;;3.43;3.13;;;;;;;;;;4987971;28;20188;-60
2021/05/10 04:49:46;;;;;;;4.97;3.13;;;;;;;;;;4982985;28;20196;-60
2021/05/10 04:52:11;;;;;;;4.10;3.70;;;;;;;;;;4983637;28;20212;-60
2021/05/10 04:54:36;;;;;;;6.93;3.30;;;;;;;;;;4981632;28;20597;-60
2021/05/10 04:57:02;;;;;;;3.45;3.15;;;;;;;;;;4990170;28;20263;-60
2021/05/10 04:59:32;;;;;;;3.72;3.30;;;;;;;;;;4983885;28;20184;-59
2021/05/10 05:01:57;;;;;;;4.38;3.60;;;;;;;;;;4987530;28;20215;-61
2021/05/10 05:04:28;;;;;;;4.63;3.67;;;;;;;;;;4981305;28;20567;-60
2021/05/10 05:06:58;;;;;;;4.15;3.00;;;;;;;;;;4991219;28;20191;-60
2021/05/10 05:09:27;;;;;;;3.20;2.90;;;;;;;;;;4988450;28;20199;-59
2021/05/10 05:11:53;;;;;;;2.92;2.70;;;;;;;;;;4983266;28;20210;-59
2021/05/10 05:14:18;;;;;;;4.65;2.97;;;;;;;;;;4986418;28;20204;-59
2021/05/10 05:16:43;;;;;;;3.23;2.87;;;;;;;;;;4983906;28;20185;-61
2021/05/10 05:19:11;;;;;;;4.13;3.10;;;;;;;;;;4986842;28;20671;-59
2021/05/10 05:21:38;;;;;;;3.10;2.80;;;;;;;;;;4986693;28;20216;-61
2021/05/10 05:24:06;;;;;;;6.10;3.40;;;;;;;;;;4984748;28;20192;-59
2021/05/10 05:26:32;;;;;;;6.20;3.50;;;;;;;;;;4986061;28;20251;-60
2021/05/10 05:28:59;;;;;;;3.73;3.30;;;;;;;;;;4987307;28;20196;-60
2021/05/10 05:31:29;;;;;;;4.33;3.53;;;;;;;;;;4978770;28;20283;-60
2021/05/10 05:33:59;;;;;;;3.93;3.63;;;;;;;;;;4989457;28;20196;-60
2021/05/10 05:36:26;;;;;;;3.85;3.55;;;;;;;;;;4982303;28;20185;-63
2021/05/10 05:38:51;;;;;;;3.78;3.30;;;;;;;;;;4987660;28;20208;-60
2021/05/10 05:41:19;;;;;;;4.97;3.90;;;;;;;;;;4980567;28;20271;-60
2021/05/10 05:43:44;;;;;;;3.63;3.33;;;;;;;;;;5000280;28;20246;-60
2021/05/10 05:46:14;;;;;;;6.35;3.28;;;;;;;;;;4987705;28;20201;-59
2021/05/10 05:48:44;;;;;;;2.78;2.55;;;;;;;;;;4989065;28;20195;-60
2021/05/10 05:51:15;;;;;;;6.63;3.90;;;;;;;;;;4993988;28;20715;-60
2021/05/10 05:53:45;;;;;;;4.33;3.60;;;;;;;;;;4984042;28;20247;-60
2021/05/10 05:56:12;;;;;;;6.50;3.88;;;;;;;;;;5001689;28;20192;-59
2021/05/10 05:58:42;;;;;;;4.75;3.67;;;;;;;;;;4986394;28;20218;-59
2021/05/10 06:01:12;;;;;;;3.30;3.00;;;;;;;;;;4981734;28;20208;-60
2021/05/10 06:03:42;;;;;;;4.50;3.60;;;;;;;;;;4984940;28;20242;-59
2021/05/10 06:06:10;;;;;;;4.25;3.30;;;;;;;;;;4984747;28;20192;-59
2021/05/10 06:08:36;;;;;;;10.50;3.70;;;;;;;;;;4986321;28;20204;-60
2021/05/10 06:11:06;;;;;;;3.78;3.47;;;;;;;;;;4989100;28;20196;-60
2021/05/10 06:13:36;;;;;;;8.02;3.55;;;;;;;;;;4981974;28;20225;-60
2021/05/10 06:16:03;;;;;;;4.13;3.45;;;;;;;;;;4982684;28;20703;-60
2021/05/10 06:18:33;;;;;;;2.92;1.88;;;;;;;;;;4984508;28;20189;-60
2021/05/10 06:21:02;;;;;;;2.55;2.35;;;;;;;;;;4996381;28;20254;-60
2021/05/10 06:23:27;;;;;;;3.22;2.00;;;;;;;;;;4999585;28;20205;-60
2021/05/10 06:25:53;;;;;;;2.70;2.50;;;;;;;;;;4981602;28;20196;-59
2021/05/10 06:28:18;;;;;;;2.10;1.90;;;;;;;;;;4977453;28;20196;-59
2021/05/10 06:30:46;;;;;;;3.97;2.33;;;;;;;;;;4985197;28;20282;-60
2021/05/10 06:33:13;;;;;;;5.77;3.83;;;;;;;;;;4985873;28;20202;-62
2021/05/10 06:35:41;;;;;;;6.60;3.93;;;;;;;;;;4980476;28;20279;-60
2021/05/10 06:38:06;;;;;;;3.97;3.40;;;;;;;;;;4982326;28;20199;-60
2021/05/10 06:40:32;;;;;;;3.43;3.13;;;;;;;;;;4982229;28;20608;-60
2021/05/10 06:43:01;;;;;;;9.43;3.63;;;;;;;;;;4983433;28;20306;-58
2021/05/10 06:45:29;;;;;;;5.03;4.17;;;;;;;;;;4986222;28;20227;-59
2021/05/10 06:47:54;;;;;;;6.73;5.50;;;;;;;;;;5002196;23;20313;-59
2021/05/10 06:50:22;;;;;;;6.00;5.43;;;;;;;;;;5005581;28;20274;-59
2021/05/10 06:52:47;;;;;;;5.70;5.13;;;;;;;;;;5004893;28;20249;-59
2021/05/10 06:55:17;;;;;;;5.93;4.97;;;;;;;;;;5004920;28;20215;-60
2021/05/10 06:57:47;;;;;;;6.33;5.00;;;;;;;;;;4989946;28;20212;-61
2021/05/10 07:00:15;;;;;;;4.97;4.47;;;;;;;;;;4982192;28;20199;-64
2021/05/10 07:02:41;;;;;;;5.30;4.80;;;;;;;;;;4983342;28;20282;-63
2021/05/10 07:05:11;;;;;;;5.17;4.67;;;;;;;;;;4982508;28;20283;-60
2021/05/10 07:07:36;;;;;;;7.05;4.78;;;;;;;;;;4984787;28;20243;-60
2021/05/10 07:10:03;;;;;;;4.93;4.13;;;;;;;;;;4980037;28;20214;-60
2021/05/10 07:12:31;;;;;;;4.32;3.92;;;;;;;;;;4984738;28;20196;-59
2021/05/10 07:14:59;;;;;;;3.50;2.92;;;;;;;;;;4978751;28;20215;-59
2021/05/10 07:17:26;;;;;;;3.65;3.35;;;;;;;;;;4981360;28;20274;-61
2021/05/10 07:19:56;;;;;;;4.65;3.33;;;;;;;;;;4986726;28;20184;-61
2021/05/10 07:22:26;;;;;;;4.28;3.13;;;;;;;;;;4980646;28;20591;-62
2021/05/10 07:24:58;;;;;;;3.80;3.50;;;;;;;;;;4982423;28;20666;-63
2021/05/10 07:27:24;;;;;;;2.00;1.90;;;;;;;;;;4985069;28;20351;-63
2021/05/10 07:29:49;;;;;;;2.75;2.55;;;;;;;;;;4983077;28;20197;-61
2021/05/10 07:32:19;;;;;;;3.28;2.97;;;;;;;;;;4983666;28;20678;-61
2021/05/10 07:34:44;;;;;;;3.80;3.15;;;;;;;;;;4985618;28;20245;-61
2021/05/10 07:37:17;;;;;;;7.63;3.40;;;;;;;;;;4982720;28;20240;-63
2021/05/10 07:39:45;;;;;;;4.75;3.13;;;;;;;;;;4985586;28;20242;-60
2021/05/10 07:42:11;;;;;;;4.30;2.60;;;;;;;;;;4985094;28;20191;-62
2021/05/10 07:44:41;;;;;;;3.92;3.10;;;;;;;;;;4983604;28;20188;-62
2021/05/10 07:47:08;;;;;;;4.22;3.03;;;;;;;;;;4975352;28;20242;-62
2021/05/10 07:49:34;;;;;;;5.15;2.70;;;;;;;;;;4984557;28;20184;-58
2021/05/10 07:52:01;;;;;;;5.95;3.20;;;;;;;;;;4984864;28;20195;-56
2021/05/10 07:54:29;;;;;;;3.63;3.10;;;;;;;;;;4966855;28;20731;-61
2021/05/10 07:56:57;;;;;;;3.70;2.83;;;;;;;;;;4986594;28;20595;-63
2021/05/10 07:59:24;;;;;;;4.00;2.38;;;;;;;;;;4988445;28;20266;-58
2021/05/10 08:01:54;;;;;;;3.60;3.00;;;;;;;;;;4984770;28;20747;-59
2021/05/10 08:04:21;;;;;;;7.53;3.15;;;;;;;;;;4988546;28;20707;-61
2021/05/10 08:06:47;;;;;;;4.57;3.15;;;;;;;;;;4992255;28;20218;-62
2021/05/10 08:09:14;;;;;;;4.35;3.33;;;;;;;;;;4988217;28;20192;-63
2021/05/10 08:11:40;;;;;;;3.63;2.80;;;;;;;;;;4983054;28;20836;-59
2021/05/10 08:14:05;;;;;;;2.75;2.45;;;;;;;;;;4985958;28;20207;-62
2021/05/10 08:16:36;;;;;;;2.55;2.30;;;;;;;;;;4980875;28;20192;-61
2021/05/10 08:19:03;;;;;;;5.93;1.95;;;;;;;;;;4983997;28;20231;-60
2021/05/10 08:21:28;;;;;;;2.65;1.80;;;;;;;;;;4983866;28;20196;-60
2021/05/10 08:23:56;;;;;;;4.72;1.80;;;;;;;;;;4985271;28;20198;-58
2021/05/10 08:26:26;;;;;;;3.05;2.17;;;;;;;;;;4983924;28;20254;-60
2021/05/10 08:28:51;;;;;;;3.35;2.33;;;;;;;;;;4986122;28;20184;-59
2021/05/10 08:31:17;;;;;;;1.92;1.60;;;;;;;;;;4987083;28;20197;-58
2021/05/10 08:33:44;;;;;;;2.30;1.70;;;;;;;;;;4986976;28;20759;-58
2021/05/10 08:36:12;;;;;;;4.72;1.77;;;;;;;;;;4984220;28;20621;-61
2021/05/10 08:38:40;;;;;;;2.17;1.70;;;;;;;;;;4985853;28;20274;-59
2021/05/10 08:41:05;;;;;;;5.13;1.88;;;;;;;;;;4985694;28;20180;-60
2021/05/10 08:43:31;;;;;;;1.80;1.70;;;;;;;;;;4981283;28;20192;-62
2021/05/10 08:45:57;;;;;;;2.17;1.80;;;;;;;;;;4978815;28;20252;-59
2021/05/10 08:48:24;;;;;;;2.67;1.70;;;;;;;;;;4984157;28;20207;-59
2021/05/10 08:50:50;;;;;;;3.53;1.90;;;;;;;;;;4978207;28;20184;-63
2021/05/10 08:53:35;;;;;;;3.70;1.73;;;;;;;;;;4975520;28;20192;-60
2021/05/10 08:56:05;;;;;;;3.20;1.90;;;;;;;;;;4980980;28;20211;-58
2021/05/10 08:58:39;;;;;;;3.90;2.13;;;;;;;;;;4985188;28;20212;-60
2021/05/10 09:01:09;;;;;;;2.55;1.60;;;;;;;;;;4984328;28;20195;-61
2021/05/10 09:03:47;;;;;;;3.10;2.00;;;;;;;;;;4974148;28;20661;-60
2021/05/10 09:06:29;;;;;;;2.35;1.75;;;;;;;;;;4983545;28;20187;-60
2021/05/10 09:09:11;;;;;;;4.63;2.15;;;;;;;;;;4981759;28;20183;-60
2021/05/10 09:11:54;;;;;;;3.45;1.95;;;;;;;;;;4985090;28;20607;-62
2021/05/10 09:14:34;;;;;;;2.47;1.70;;;;;;;;;;4977925;28;20207;-61
2021/05/10 09:17:01;;;;;;;4.10;1.65;;;;;;;;;;4980341;28;20207;-65
2021/05/10 09:19:51;;;;;;;1.90;1.67;;;;;;;;;;4984506;28;20203;-61
2021/05/10 09:22:18;;;;;;;3.97;1.67;;;;;;;;;;4982787;28;20548;-60
2021/05/10 09:24:52;;;;;;;2.00;1.70;;;;;;;;;;4982377;28;20246;-62
2021/05/10 09:27:22;;;;;;;3.58;1.70;;;;;;;;;;4975812;28;20215;-61
2021/05/10 09:29:52;;;;;;;3.22;2.10;;;;;;;;;;4979134;28;20184;-61
2021/05/10 09:32:31;;;;;;;2.60;2.20;;;;;;;;;;4978574;28;20567;-61
2021/05/10 09:35:16;;;;;;;3.90;1.75;;;;;;;;;;4981504;28;20211;-60
2021/05/10 09:37:42;;;;;;;3.05;2.10;;;;;;;;;;4979468;28;20580;-60
2021/05/10 09:40:13;;;;;;;3.13;1.80;;;;;;;;;;4975127;28;20185;-60
2021/05/10 09:42:50;;;;;;;2.13;1.80;;;;;;;;;;4978759;28;20242;-59
2021/05/10 09:45:37;;;;;;;1.90;1.65;;;;;;;;;;4983466;28;20176;-60
2021/05/10 09:48:13;;;;;;;2.88;1.80;;;;;;;;;;4982015;28;20299;-61
2021/05/10 09:50:43;;;;;;;4.05;1.90;;;;;;;;;;4984601;28;20199;-60
2021/05/10 09:53:13;;;;;;;1.50;1.40;;;;;;;;;;4985299;28;20184;-62
2021/05/10 09:55:48;;;;;;;4.20;1.60;;;;;;;;;;4983021;28;20216;-59
2021/05/10 09:58:14;;;;;;;1.80;1.40;;;;;;;;;;4980614;28;20207;-60
2021/05/10 10:00:41;;;;;;;2.60;1.90;;;;;;;;;;4986157;28;20199;-60
2021/05/10 10:03:23;;;;;;;3.53;1.85;;;;;;;;;;4983871;28;20188;-59
2021/05/10 10:05:56;;;;;;;1.88;1.60;;;;;;;;;;4979491;28;20663;-60
2021/05/10 10:08:26;;;;;;;2.15;1.55;;;;;;;;;;4981806;28;20277;-59
2021/05/10 10:10:52;;;;;;;3.67;1.52;;;;;;;;;;4985960;28;20194;-63
2021/05/10 10:13:24;;;;;;;2.42;2.03;;;;;;;;;;4968536;28;20183;-62
2021/05/10 10:15:55;;;;;;;2.40;1.70;;;;;;;;;;4987873;28;20245;-59
2021/05/10 10:18:23;;;;;;;3.33;1.55;;;;;;;;;;4985842;28;20831;-59
2021/05/10 10:20:52;;;;;;;2.85;1.45;;;;;;;;;;4988489;28;20202;-59
2021/05/10 10:23:22;;;;;;;3.05;1.70;;;;;;;;;;4989564;28;21059;-58
2021/05/10 10:25:48;;;;;;;1.88;1.75;;;;;;;;;;4976139;28;20287;-59
2021/05/10 10:28:20;;;;;;;2.45;1.90;;;;;;;;;;4979418;28;20302;-61
2021/05/10 10:30:48;;;;;;;2.95;1.80;;;;;;;;;;4983220;28;20188;-61
2021/05/10 10:33:22;;;;;;;1.83;1.50;;;;;;;;;;4981327;28;20183;-60
2021/05/10 10:35:49;;;;;;;1.70;1.60;;;;;;;;;;4978796;28;20207;-59
2021/05/10 10:38:28;;;;;;;2.25;1.70;;;;;;;;;;4976716;28;20277;-59
2021/05/10 10:41:17;;;;;;;2.28;1.40;;;;;;;;;;4974740;28;20195;-58
2021/05/10 10:43:46;;;;;;;1.70;1.60;;;;;;;;;;4980110;28;20687;-60
2021/05/10 10:46:28;;;;;;;3.63;1.70;;;;;;;;;;4980988;28;20188;-60
2021/05/10 10:48:57;;;;;;;1.63;1.48;;;;;;;;;;4980515;28;20184;-61
2021/05/10 10:51:30;;;;;;;1.77;1.58;;;;;;;;;;4979995;28;20208;-59
2021/05/10 10:54:00;;;;;;;5.60;1.63;;;;;;;;;;4973643;28;20687;-60
2021/05/10 10:57:08;;;;;;;1.77;1.48;;;;;;;;;;4979975;28;20191;-61
2021/05/10 10:59:36;;;;;;;6.57;1.50;;;;;;;;;;4940493;28;20736;-60
2021/05/10 11:02:25;;;;;;;7.90;1.58;;;;;;;;;;4937883;28;20193;-59
2021/05/10 11:05:16;;;;;;;2.97;1.42;;;;;;;;;;4964646;28;20288;-60
2021/05/10 11:07:56;;;;;;;1.42;1.23;;;;;;;;;;4983908;28;20208;-59
2021/05/10 11:10:46;;;;;;;3.40;1.73;;;;;;;;;;4974767;28;20221;-59
2021/05/10 11:13:38;;;;;;;3.50;1.25;;;;;;;;;;4978094;28;20188;-57
2021/05/10 11:16:09;;;;;;;3.67;1.30;;;;;;;;;;4978311;28;20209;-59
2021/05/10 11:18:43;;;;;;;5.30;1.60;;;;;;;;;;4980561;28;20717;-60
2021/05/10 11:21:31;;;;;;;5.75;1.20;;;;;;;;;;4978055;28;20177;-59
2021/05/10 11:24:09;;;;;;;1.95;1.33;;;;;;;;;;4975321;28;20598;-59
2021/05/10 11:26:43;;;;;;;2.22;1.33;;;;;;;;;;4980085;28;20194;-59
2021/05/10 11:29:34;;;;;;;3.47;1.45;;;;;;;;;;4986183;28;20198;-60
2021/05/10 11:32:08;;;;;;;3.22;1.80;;;;;;;;;;4976047;28;20584;-60
2021/05/10 11:34:38;;;;;;;5.45;1.95;;;;;;;;;;4988956;28;20311;-58
2021/05/10 11:37:05;;;;;;;5.25;1.33;;;;;;;;;;4980352;28;20214;-60
2021/05/10 11:39:38;;;;;;;6.93;1.88;;;;;;;;;;4980172;28;20204;-58
2021/05/10 11:42:05;;;;;;;3.25;1.27;;;;;;;;;;4980931;28;20280;-59
2021/05/10 11:44:34;;;;;;;6.00;1.52;;;;;;;;;;4988683;28;21615;-62
2021/05/10 11:47:03;;;;;;;7.80;1.80;;;;;;;;;;4979003;28;20215;-59
2021/05/10 11:49:39;;;;;;;4.10;1.70;;;;;;;;;;4980981;28;20199;-58
2021/05/10 11:52:14;;;;;;;1.30;1.20;;;;;;;;;;4981052;28;20202;-58
2021/05/10 11:54:43;;;;;;;4.13;1.65;;;;;;;;;;4986643;28;20215;-59
2021/05/10 11:57:10;;;;;;;5.03;1.75;;;;;;;;;;4983072;28;20700;-59
2021/05/10 12:02:23;;;;;;;2.83;1.38;;;;;;;;;;4985503;28;20188;-59
2021/05/10 12:05:11;;;;;;;0.90;0.90;;;;;;;;;;4982813;28;20318;-60
2021/05/10 12:07:40;;;;;;;2.22;1.23;;;;;;;;;;4978436;28;20239;-60
2021/05/10 12:10:13;;;;;;;2.45;1.20;;;;;;;;;;4981908;28;20185;-60
2021/05/10 12:12:40;;;;;;;3.22;1.55;;;;;;;;;;4981932;28;20203;-61
2021/05/10 12:15:13;;;;;;;1.77;1.30;;;;;;;;;;4986581;28;20715;-60
2021/05/10 12:17:50;;;;;;;2.42;1.30;;;;;;;;;;4982105;28;20215;-60
2021/05/10 12:20:23;;;;;;;1.65;1.00;;;;;;;;;;4983897;28;20198;-60
2021/05/10 12:22:51;;;;;;;2.97;1.33;;;;;;;;;;4987601;28;20549;-60
2021/05/10 12:25:42;;;;;;;2.45;1.27;;;;;;;;;;4986196;28;20203;-60
2021/05/10 12:28:28;;;;;;;1.20;1.10;;;;;;;;;;4983224;28;20230;-60
2021/05/10 12:30:56;;;;;;;4.22;0.90;;;;;;;;;;4985392;28;20196;-58
2021/05/10 12:33:26;;;;;;;2.95;1.10;;;;;;;;;;4986846;28;20180;-60
2021/05/10 12:35:54;;;;;;;1.45;1.08;;;;;;;;;;4981920;28;20211;-59
2021/05/10 12:38:36;;;;;;;11.60;1.40;;;;;;;;;;4974569;28;20216;-60
2021/05/10 12:41:05;;;;;;;3.53;1.20;;;;;;;;;;4974206;28;20201;-60
2021/05/10 12:43:45;;;;;;;4.32;1.30;;;;;;;;;;4977935;28;20243;-60
2021/05/10 12:46:11;;;;;;;2.92;1.27;;;;;;;;;;4974299;28;20231;-59
2021/05/10 12:48:47;;;;;;;2.38;1.20;;;;;;;;;;5011230;23;20228;-78
2021/05/10 12:51:15;;;;;;;1.83;0.80;;;;;;;;;;4990885;28;20706;-79
2021/05/10 12:54:02;;;;;;;3.58;1.10;;;;;;;;;;4994498;28;20203;-77
2021/05/10 12:56:29;;;;;;;1.20;1.00;;;;;;;;;;4992695;28;20195;-79
2021/05/10 12:58:59;;;;;;;3.45;1.30;;;;;;;;;;4994171;28;20249;-79
2021/05/10 13:01:28;;;;;;;1.67;1.15;;;;;;;;;;4986351;28;20204;-81
2021/05/10 13:04:06;;;;;;;2.80;1.30;;;;;;;;;;4997849;28;20191;-79
2021/05/10 13:06:33;;;;;;;2.15;1.33;;;;;;;;;;4996732;28;20190;-77
2021/05/10 13:08:59;;;;;;;6.50;1.40;;;;;;;;;;4993901;28;20184;-79
2021/05/10 13:11:53;;;;;;;2.45;1.50;;;;;;;;;;4991687;28;20242;-78
2021/05/10 13:17:08;;;;;;;5.35;1.20;;;;;;;;;;4988147;28;20193;-78
2021/05/10 13:19:49;;;;;;;1.98;1.00;;;;;;;;;;4989915;28;20199;-78
2021/05/10 13:34:04;;;;;;;2.45;1.10;;;;;;;;;;4985489;28;20746;-91
2021/05/10 13:36:42;;;;;;;1.52;1.00;;;;;;;;;;4989231;28;20660;-90
2021/05/10 13:39:15;;;;;;;1.70;1.27;;;;;;;;;;4990741;28;20675;-84
2021/05/10 13:42:07;;;;;;;1.33;1.17;;;;;;;;;;4989178;28;20208;-79
2021/05/10 13:44:33;;;;;;;1.52;1.13;;;;;;;;;;4986322;28;20273;-78
2021/05/10 13:46:59;;;;;;;2.03;1.17;;;;;;;;;;4995129;28;20946;-79
2021/05/10 13:49:24;;;;;;;3.75;1.30;;;;;;;;;;4990461;28;20826;-80
2021/05/10 13:51:50;;;;;;;2.05;1.20;;;;;;;;;;4993081;28;20287;-79
2021/05/10 13:54:23;;;;;;;1.48;1.08;;;;;;;;;;4997121;28;20188;-79
2021/05/10 13:56:50;;;;;;;5.20;1.45;;;;;;;;;;4994947;28;20197;-79
2021/05/10 13:59:17;;;;;;;2.00;1.27;;;;;;;;;;5003318;28;20184;-78
2021/05/10 14:01:42;;;;;;;2.90;0.90;;;;;;;;;;5010908;28;20192;-78
2021/05/10 14:04:08;;;;;;;1.58;0.90;;;;;;;;;;5006691;28;20296;-79
2021/05/10 14:06:35;;;;;;;2.35;1.10;;;;;;;;;;4996501;28;20200;-79
2021/05/10 14:09:01;;;;;;;3.10;1.00;;;;;;;;;;4982988;28;20191;-80
2021/05/10 14:11:29;;;;;;;1.85;0.93;;;;;;;;;;4982894;28;20440;-80
2021/05/10 14:13:54;;;;;;;1.88;1.13;;;;;;;;;;4984503;28;20195;-84
2021/05/10 14:16:20;;;;;;;3.28;1.10;;;;;;;;;;4983017;28;20207;-80
2021/05/10 14:19:27;;;;;;;3.55;1.17;;;;;;;;;;4980141;28;20192;-80
2021/05/10 14:24:21;;;;;;;1.50;1.08;;;;;;;;;;4988405;28;20326;-78
2021/05/10 14:26:47;;;;;;;1.50;0.70;;;;;;;;;;4988026;28;20279;-79
2021/05/10 14:29:14;;;;;;;1.98;0.60;;;;;;;;;;4989621;28;20248;-79
2021/05/10 14:31:44;;;;;;;0.50;0.50;;;;;;;;;;4989546;28;20216;-79
2021/05/10 14:34:10;;;;;;;0.63;0.60;;;;;;;;;;4990980;28;20182;-79
2021/05/10 14:36:36;;;;;;;0.70;0.70;;;;;;;;;;4989925;28;20192;-80
2021/05/10 14:39:10;;;;;;;1.50;0.80;;;;;;;;;;4977655;28;20195;-79
2021/05/10 14:41:39;;;;;;;2.33;0.75;;;;;;;;;;4987094;28;20219;-80
2021/05/10 14:44:05;;;;;;;0.90;0.63;;;;;;;;;;4987184;28;20188;-79
2021/05/10 14:46:31;;;;;;;0.70;0.70;;;;;;;;;;4987123;28;20192;-79
2021/05/10 14:48:56;;;;;;;2.45;0.70;;;;;;;;;;4986063;28;20283;-79
2021/05/10 14:51:21;;;;;;;2.72;0.68;;;;;;;;;;4989805;28;20230;-80
2021/05/10 14:53:47;;;;;;;1.67;0.70;;;;;;;;;;4987265;28;20215;-80
2021/05/10 14:56:12;;;;;;;1.50;0.73;;;;;;;;;;4988915;28;20208;-78
2021/05/10 14:58:38;;;;;;;0.60;0.60;;;;;;;;;;4986160;28;20612;-79
2021/05/10 15:01:03;;;;;;;1.38;0.70;;;;;;;;;;4984784;28;20218;-79
2021/05/10 15:03:29;;;;;;;1.27;0.63;;;;;;;;;;4987310;28;20648;-80
2021/05/10 15:05:54;;;;;;;3.33;0.70;;;;;;;;;;4986375;28;20612;-79
2021/05/10 15:08:19;;;;;;;2.30;0.70;;;;;;;;;;4995563;28;20215;-79
2021/05/10 15:10:45;;;;;;;0.68;0.68;;;;;;;;;;4989831;28;20603;-79
2021/05/10 15:13:10;;;;;;;0.77;0.60;;;;;;;;;;4987563;28;20196;-79
2021/05/10 15:15:36;;;;;;;2.72;0.80;;;;;;;;;;4987694;28;20287;-80
2021/05/10 15:18:01;;;;;;;1.05;0.70;;;;;;;;;;4981987;28;20218;-80
2021/05/10 15:20:29;;;;;;;0.90;0.88;;;;;;;;;;4988453;28;20227;-79
2021/05/10 15:22:58;;;;;;;0.90;0.80;;;;;;;;;;4984842;28;20192;-79
2021/05/10 15:25:24;;;;;;;0.75;0.70;;;;;;;;;;4984788;28;20274;-79